sensor_id;sensor_type;location;lat;lon;timestamp;P1;durP1;ratioP1;P2;durP2;ratioP2
8580;SDS011;4328;48.622;9.230;2023-03-01T00:01:30;12.23;;;9.43;;
8580;SDS011;4328;48.622;9.230;2023-03-01T00:03:57;10.87;;;9.03;;
8580;SDS011;4328;48.622;9.230;2023-03-01T00:06:26;14.07;;;9.77;;
8580;SDS011;4328;48.622;9.230;2023-03-01T00:08:52;10.77;;;8.33;;
8580;SDS011;4328;48.622;9.230;2023-03-01T00:11:20;11.67;;;8.70;;
8580;SDS011;4328;48.622;9.230;2023-03-01T00:13:47;11.53;;;8.50;;
8580;SDS011;4328;48.622;9.230;2023-03-01T00:16:14;12.40;;;8.87;;
8580;SDS011;4328;48.622;9.230;2023-03-01T00:18:41;11.90;;;9.03;;
8580;SDS011;4328;48.622;9.230;2023-03-01T00:21:08;11.97;;;9.43;;
8580;SDS011;4328;48.622;9.230;2023-03-01T00:23:36;11.23;;;8.67;;
8580;SDS011;4328;48.622;9.230;2023-03-01T00:26:05;10.90;;;8.63;;
8580;SDS011;4328;48.622;9.230;2023-03-01T00:28:31;10.77;;;8.57;;
8580;SDS011;4328;48.622;9.230;2023-03-01T00:31:02;9.87;;;8.07;;
8580;SDS011;4328;48.622;9.230;2023-03-01T00:33:28;12.97;;;8.90;;
8580;SDS011;4328;48.622;9.230;2023-03-01T00:35:57;10.57;;;8.40;;
8580;SDS011;4328;48.622;9.230;2023-03-01T00:38:23;12.70;;;8.50;;
8580;SDS011;4328;48.622;9.230;2023-03-01T00:40:51;12.43;;;8.50;;
8580;SDS011;4328;48.622;9.230;2023-03-01T00:43:18;12.70;;;8.80;;
8580;SDS011;4328;48.622;9.230;2023-03-01T00:45:44;9.97;;;8.77;;
8580;SDS011;4328;48.622;9.230;2023-03-01T00:48:11;13.97;;;9.73;;
8580;SDS011;4328;48.622;9.230;2023-03-01T00:50:37;12.40;;;8.67;;
8580;SDS011;4328;48.622;9.230;2023-03-01T00:53:04;12.40;;;9.33;;
8580;SDS011;4328;48.622;9.230;2023-03-01T00:55:30;12.70;;;9.27;;
8580;SDS011;4328;48.622;9.230;2023-03-01T00:57:58;10.37;;;8.70;;
8580;SDS011;4328;48.622;9.230;2023-03-01T01:00:25;10.83;;;9.33;;
8580;SDS011;4328;48.622;9.230;2023-03-01T01:02:52;15.00;;;9.80;;
8580;SDS011;4328;48.622;9.230;2023-03-01T01:05:18;10.50;;;8.93;;
8580;SDS011;4328;48.622;9.230;2023-03-01T01:07:46;11.80;;;8.87;;
8580;SDS011;4328;48.622;9.230;2023-03-01T01:10:12;11.73;;;9.20;;
8580;SDS011;4328;48.622;9.230;2023-03-01T01:12:42;13.33;;;9.47;;
8580;SDS011;4328;48.622;9.230;2023-03-01T01:15:10;11.07;;;9.00;;
8580;SDS011;4328;48.622;9.230;2023-03-01T01:17:38;13.57;;;9.50;;
8580;SDS011;4328;48.622;9.230;2023-03-01T01:20:04;10.27;;;8.83;;
8580;SDS011;4328;48.622;9.230;2023-03-01T01:22:31;10.27;;;8.77;;
8580;SDS011;4328;48.622;9.230;2023-03-01T01:24:57;13.63;;;9.30;;
8580;SDS011;4328;48.622;9.230;2023-03-01T01:27:24;12.67;;;9.23;;
8580;SDS011;4328;48.622;9.230;2023-03-01T01:29:52;13.03;;;9.33;;
8580;SDS011;4328;48.622;9.230;2023-03-01T01:32:20;13.93;;;9.60;;
8580;SDS011;4328;48.622;9.230;2023-03-01T01:34:46;11.90;;;9.77;;
8580;SDS011;4328;48.622;9.230;2023-03-01T01:37:12;11.80;;;9.97;;
8580;SDS011;4328;48.622;9.230;2023-03-01T01:39:39;13.23;;;9.87;;
8580;SDS011;4328;48.622;9.230;2023-03-01T01:42:05;13.47;;;9.83;;
8580;SDS011;4328;48.622;9.230;2023-03-01T01:44:32;13.83;;;10.23;;
8580;SDS011;4328;48.622;9.230;2023-03-01T01:47:00;13.47;;;9.87;;
8580;SDS011;4328;48.622;9.230;2023-03-01T01:49:31;14.47;;;9.60;;
8580;SDS011;4328;48.622;9.230;2023-03-01T01:52:02;12.80;;;9.37;;
8580;SDS011;4328;48.622;9.230;2023-03-01T01:54:31;12.83;;;9.23;;
8580;SDS011;4328;48.622;9.230;2023-03-01T01:57:02;12.50;;;9.40;;
8580;SDS011;4328;48.622;9.230;2023-03-01T01:59:29;12.97;;;10.17;;
8580;SDS011;4328;48.622;9.230;2023-03-01T02:01:57;11.43;;;9.40;;
8580;SDS011;4328;48.622;9.230;2023-03-01T02:04:25;11.93;;;8.90;;
8580;SDS011;4328;48.622;9.230;2023-03-01T02:06:55;13.73;;;9.47;;
8580;SDS011;4328;48.622;9.230;2023-03-01T02:09:24;12.60;;;9.33;;
8580;SDS011;4328;48.622;9.230;2023-03-01T02:11:50;11.87;;;9.53;;
8580;SDS011;4328;48.622;9.230;2023-03-01T02:14:17;12.97;;;9.93;;
8580;SDS011;4328;48.622;9.230;2023-03-01T02:16:43;11.97;;;9.43;;
8580;SDS011;4328;48.622;9.230;2023-03-01T02:19:11;11.10;;;9.37;;
8580;SDS011;4328;48.622;9.230;2023-03-01T02:21:41;13.03;;;9.73;;
8580;SDS011;4328;48.622;9.230;2023-03-01T02:24:15;12.57;;;9.93;;
8580;SDS011;4328;48.622;9.230;2023-03-01T02:26:48;14.57;;;9.80;;
8580;SDS011;4328;48.622;9.230;2023-03-01T02:29:17;13.57;;;10.40;;
8580;SDS011;4328;48.622;9.230;2023-03-01T02:31:43;13.17;;;9.43;;
8580;SDS011;4328;48.622;9.230;2023-03-01T02:34:11;13.83;;;10.30;;
8580;SDS011;4328;48.622;9.230;2023-03-01T02:36:38;14.73;;;10.30;;
8580;SDS011;4328;48.622;9.230;2023-03-01T02:39:07;11.23;;;9.83;;
8580;SDS011;4328;48.622;9.230;2023-03-01T02:41:39;13.33;;;9.87;;
8580;SDS011;4328;48.622;9.230;2023-03-01T02:44:07;12.43;;;10.07;;
8580;SDS011;4328;48.622;9.230;2023-03-01T02:46:41;12.67;;;10.20;;
8580;SDS011;4328;48.622;9.230;2023-03-01T02:49:16;13.03;;;9.80;;
8580;SDS011;4328;48.622;9.230;2023-03-01T02:51:45;14.17;;;10.20;;
8580;SDS011;4328;48.622;9.230;2023-03-01T02:54:17;13.87;;;10.07;;
8580;SDS011;4328;48.622;9.230;2023-03-01T02:56:46;13.17;;;10.07;;
8580;SDS011;4328;48.622;9.230;2023-03-01T02:59:15;12.43;;;9.77;;
8580;SDS011;4328;48.622;9.230;2023-03-01T03:01:44;13.53;;;10.00;;
8580;SDS011;4328;48.622;9.230;2023-03-01T03:04:13;12.83;;;10.10;;
8580;SDS011;4328;48.622;9.230;2023-03-01T03:06:42;12.20;;;10.10;;
8580;SDS011;4328;48.622;9.230;2023-03-01T03:09:09;11.60;;;9.80;;
8580;SDS011;4328;48.622;9.230;2023-03-01T03:11:35;11.10;;;9.27;;
8580;SDS011;4328;48.622;9.230;2023-03-01T03:14:04;11.57;;;9.37;;
8580;SDS011;4328;48.622;9.230;2023-03-01T03:16:30;14.43;;;10.10;;
8580;SDS011;4328;48.622;9.230;2023-03-01T03:18:58;11.93;;;9.87;;
8580;SDS011;4328;48.622;9.230;2023-03-01T03:21:30;11.83;;;9.73;;
8580;SDS011;4328;48.622;9.230;2023-03-01T03:23:56;12.50;;;9.67;;
8580;SDS011;4328;48.622;9.230;2023-03-01T03:26:22;11.03;;;9.23;;
8580;SDS011;4328;48.622;9.230;2023-03-01T03:28:49;13.17;;;9.93;;
8580;SDS011;4328;48.622;9.230;2023-03-01T03:31:15;12.10;;;9.87;;
8580;SDS011;4328;48.622;9.230;2023-03-01T03:33:42;12.53;;;9.97;;
8580;SDS011;4328;48.622;9.230;2023-03-01T03:36:09;11.90;;;9.70;;
8580;SDS011;4328;48.622;9.230;2023-03-01T03:38:42;11.53;;;9.83;;
8580;SDS011;4328;48.622;9.230;2023-03-01T03:41:09;12.57;;;10.17;;
8580;SDS011;4328;48.622;9.230;2023-03-01T03:43:36;12.40;;;10.27;;
8580;SDS011;4328;48.622;9.230;2023-03-01T03:46:04;12.83;;;9.63;;
8580;SDS011;4328;48.622;9.230;2023-03-01T03:48:31;12.60;;;9.40;;
8580;SDS011;4328;48.622;9.230;2023-03-01T03:50:57;14.37;;;10.13;;
8580;SDS011;4328;48.622;9.230;2023-03-01T03:53:26;13.37;;;10.30;;
8580;SDS011;4328;48.622;9.230;2023-03-01T03:55:52;13.90;;;10.40;;
8580;SDS011;4328;48.622;9.230;2023-03-01T03:58:20;13.37;;;10.57;;
8580;SDS011;4328;48.622;9.230;2023-03-01T04:00:47;12.97;;;10.47;;
8580;SDS011;4328;48.622;9.230;2023-03-01T04:03:15;11.23;;;9.90;;
8580;SDS011;4328;48.622;9.230;2023-03-01T04:05:43;13.23;;;10.40;;
8580;SDS011;4328;48.622;9.230;2023-03-01T04:08:10;12.60;;;10.23;;
8580;SDS011;4328;48.622;9.230;2023-03-01T04:10:38;12.37;;;9.97;;
8580;SDS011;4328;48.622;9.230;2023-03-01T04:13:05;13.17;;;10.27;;
8580;SDS011;4328;48.622;9.230;2023-03-01T04:15:32;12.93;;;10.30;;
8580;SDS011;4328;48.622;9.230;2023-03-01T04:17:58;11.17;;;9.40;;
8580;SDS011;4328;48.622;9.230;2023-03-01T04:20:26;15.30;;;11.10;;
8580;SDS011;4328;48.622;9.230;2023-03-01T04:22:56;13.43;;;9.77;;
8580;SDS011;4328;48.622;9.230;2023-03-01T04:25:23;11.93;;;9.97;;
8580;SDS011;4328;48.622;9.230;2023-03-01T04:27:51;13.80;;;10.10;;
8580;SDS011;4328;48.622;9.230;2023-03-01T04:30:18;12.03;;;10.73;;
8580;SDS011;4328;48.622;9.230;2023-03-01T04:32:44;14.63;;;10.50;;
8580;SDS011;4328;48.622;9.230;2023-03-01T04:35:10;13.07;;;10.83;;
8580;SDS011;4328;48.622;9.230;2023-03-01T04:37:37;16.13;;;10.67;;
8580;SDS011;4328;48.622;9.230;2023-03-01T04:40:04;12.87;;;9.70;;
8580;SDS011;4328;48.622;9.230;2023-03-01T04:42:38;11.97;;;10.37;;
8580;SDS011;4328;48.622;9.230;2023-03-01T04:45:06;14.37;;;10.90;;
8580;SDS011;4328;48.622;9.230;2023-03-01T04:47:38;13.97;;;10.57;;
8580;SDS011;4328;48.622;9.230;2023-03-01T04:50:05;11.97;;;10.17;;
8580;SDS011;4328;48.622;9.230;2023-03-01T04:52:31;14.43;;;10.80;;
8580;SDS011;4328;48.622;9.230;2023-03-01T04:54:58;10.93;;;9.53;;
8580;SDS011;4328;48.622;9.230;2023-03-01T04:57:24;14.97;;;11.07;;
8580;SDS011;4328;48.622;9.230;2023-03-01T04:59:51;13.50;;;10.73;;
8580;SDS011;4328;48.622;9.230;2023-03-01T05:02:18;13.43;;;10.53;;
8580;SDS011;4328;48.622;9.230;2023-03-01T05:04:45;13.43;;;10.97;;
8580;SDS011;4328;48.622;9.230;2023-03-01T05:07:11;15.13;;;11.00;;
8580;SDS011;4328;48.622;9.230;2023-03-01T05:09:44;13.33;;;10.73;;
8580;SDS011;4328;48.622;9.230;2023-03-01T05:12:10;14.20;;;10.87;;
8580;SDS011;4328;48.622;9.230;2023-03-01T05:14:37;14.63;;;11.77;;
8580;SDS011;4328;48.622;9.230;2023-03-01T05:17:04;13.87;;;10.90;;
8580;SDS011;4328;48.622;9.230;2023-03-01T05:19:32;57.03;;;35.37;;
8580;SDS011;4328;48.622;9.230;2023-03-01T05:22:00;32.03;;;22.67;;
8580;SDS011;4328;48.622;9.230;2023-03-01T05:24:30;23.60;;;16.03;;
8580;SDS011;4328;48.622;9.230;2023-03-01T05:26:57;22.73;;;16.30;;
8580;SDS011;4328;48.622;9.230;2023-03-01T05:29:24;16.10;;;13.00;;
8580;SDS011;4328;48.622;9.230;2023-03-01T05:31:51;16.53;;;13.30;;
8580;SDS011;4328;48.622;9.230;2023-03-01T05:34:18;15.63;;;12.40;;
8580;SDS011;4328;48.622;9.230;2023-03-01T05:36:49;15.73;;;12.77;;
8580;SDS011;4328;48.622;9.230;2023-03-01T05:39:18;17.60;;;13.30;;
8580;SDS011;4328;48.622;9.230;2023-03-01T05:41:44;18.20;;;13.67;;
8580;SDS011;4328;48.622;9.230;2023-03-01T05:44:11;17.23;;;13.30;;
8580;SDS011;4328;48.622;9.230;2023-03-01T05:46:38;17.33;;;13.40;;
8580;SDS011;4328;48.622;9.230;2023-03-01T05:49:04;17.47;;;12.93;;
8580;SDS011;4328;48.622;9.230;2023-03-01T05:51:31;18.77;;;13.80;;
8580;SDS011;4328;48.622;9.230;2023-03-01T05:54:00;16.73;;;13.50;;
8580;SDS011;4328;48.622;9.230;2023-03-01T05:56:26;17.13;;;12.43;;
8580;SDS011;4328;48.622;9.230;2023-03-01T05:58:54;17.67;;;12.77;;
8580;SDS011;4328;48.622;9.230;2023-03-01T06:01:20;15.90;;;13.03;;
8580;SDS011;4328;48.622;9.230;2023-03-01T06:03:46;20.77;;;13.63;;
8580;SDS011;4328;48.622;9.230;2023-03-01T06:06:13;17.80;;;13.70;;
8580;SDS011;4328;48.622;9.230;2023-03-01T06:08:39;17.80;;;13.73;;
8580;SDS011;4328;48.622;9.230;2023-03-01T06:11:07;17.63;;;13.63;;
8580;SDS011;4328;48.622;9.230;2023-03-01T06:13:34;16.73;;;13.27;;
8580;SDS011;4328;48.622;9.230;2023-03-01T06:16:00;15.37;;;12.63;;
8580;SDS011;4328;48.622;9.230;2023-03-01T06:18:26;16.87;;;12.93;;
8580;SDS011;4328;48.622;9.230;2023-03-01T06:20:53;16.33;;;12.87;;
8580;SDS011;4328;48.622;9.230;2023-03-01T06:23:20;20.33;;;14.33;;
8580;SDS011;4328;48.622;9.230;2023-03-01T06:25:46;16.83;;;13.07;;
8580;SDS011;4328;48.622;9.230;2023-03-01T06:28:14;17.37;;;13.10;;
8580;SDS011;4328;48.622;9.230;2023-03-01T06:30:40;18.10;;;13.07;;
8580;SDS011;4328;48.622;9.230;2023-03-01T06:33:07;18.33;;;12.70;;
8580;SDS011;4328;48.622;9.230;2023-03-01T06:35:33;16.17;;;12.33;;
8580;SDS011;4328;48.622;9.230;2023-03-01T06:38:00;18.37;;;13.20;;
8580;SDS011;4328;48.622;9.230;2023-03-01T06:40:27;16.70;;;13.13;;
8580;SDS011;4328;48.622;9.230;2023-03-01T06:42:54;16.33;;;13.17;;
8580;SDS011;4328;48.622;9.230;2023-03-01T06:45:22;16.33;;;12.27;;
8580;SDS011;4328;48.622;9.230;2023-03-01T06:48:05;19.47;;;13.33;;
8580;SDS011;4328;48.622;9.230;2023-03-01T06:50:31;16.23;;;13.47;;
8580;SDS011;4328;48.622;9.230;2023-03-01T06:52:58;18.13;;;13.23;;
8580;SDS011;4328;48.622;9.230;2023-03-01T06:55:25;17.37;;;13.33;;
8580;SDS011;4328;48.622;9.230;2023-03-01T06:57:53;19.03;;;13.00;;
8580;SDS011;4328;48.622;9.230;2023-03-01T07:00:22;18.77;;;13.47;;
8580;SDS011;4328;48.622;9.230;2023-03-01T07:02:48;19.33;;;13.77;;
8580;SDS011;4328;48.622;9.230;2023-03-01T07:05:15;16.27;;;12.97;;
8580;SDS011;4328;48.622;9.230;2023-03-01T07:07:41;19.97;;;13.30;;
8580;SDS011;4328;48.622;9.230;2023-03-01T07:10:09;17.23;;;13.77;;
8580;SDS011;4328;48.622;9.230;2023-03-01T07:12:35;17.77;;;14.10;;
8580;SDS011;4328;48.622;9.230;2023-03-01T07:15:02;17.20;;;13.23;;
8580;SDS011;4328;48.622;9.230;2023-03-01T07:17:31;15.80;;;13.23;;
8580;SDS011;4328;48.622;9.230;2023-03-01T07:19:57;18.50;;;13.77;;
8580;SDS011;4328;48.622;9.230;2023-03-01T07:22:23;20.03;;;13.83;;
8580;SDS011;4328;48.622;9.230;2023-03-01T07:24:50;16.60;;;13.17;;
8580;SDS011;4328;48.622;9.230;2023-03-01T07:27:16;17.00;;;13.63;;
8580;SDS011;4328;48.622;9.230;2023-03-01T07:29:43;17.67;;;13.47;;
8580;SDS011;4328;48.622;9.230;2023-03-01T07:32:09;20.37;;;13.73;;
8580;SDS011;4328;48.622;9.230;2023-03-01T07:34:38;18.17;;;13.73;;
8580;SDS011;4328;48.622;9.230;2023-03-01T07:37:04;16.63;;;13.23;;
8580;SDS011;4328;48.622;9.230;2023-03-01T07:39:30;16.37;;;13.60;;
8580;SDS011;4328;48.622;9.230;2023-03-01T07:41:57;17.73;;;14.57;;
8580;SDS011;4328;48.622;9.230;2023-03-01T07:44:23;20.17;;;14.57;;
8580;SDS011;4328;48.622;9.230;2023-03-01T07:46:50;17.80;;;13.87;;
8580;SDS011;4328;48.622;9.230;2023-03-01T07:49:21;16.70;;;14.03;;
8580;SDS011;4328;48.622;9.230;2023-03-01T07:51:49;21.13;;;14.40;;
8580;SDS011;4328;48.622;9.230;2023-03-01T07:54:15;16.73;;;14.03;;
8580;SDS011;4328;48.622;9.230;2023-03-01T07:56:41;17.50;;;14.03;;
8580;SDS011;4328;48.622;9.230;2023-03-01T07:59:08;17.23;;;14.30;;
8580;SDS011;4328;48.622;9.230;2023-03-01T08:01:34;17.73;;;13.90;;
8580;SDS011;4328;48.622;9.230;2023-03-01T08:04:01;19.73;;;14.43;;
8580;SDS011;4328;48.622;9.230;2023-03-01T08:06:29;17.57;;;13.87;;
8580;SDS011;4328;48.622;9.230;2023-03-01T08:08:57;17.50;;;14.43;;
8580;SDS011;4328;48.622;9.230;2023-03-01T08:11:23;17.23;;;13.77;;
8580;SDS011;4328;48.622;9.230;2023-03-01T08:13:50;15.53;;;13.80;;
8580;SDS011;4328;48.622;9.230;2023-03-01T08:16:16;16.57;;;13.53;;
8580;SDS011;4328;48.622;9.230;2023-03-01T08:18:43;16.37;;;14.10;;
8580;SDS011;4328;48.622;9.230;2023-03-01T08:21:10;15.47;;;13.53;;
8580;SDS011;4328;48.622;9.230;2023-03-01T08:23:37;16.37;;;13.00;;
8580;SDS011;4328;48.622;9.230;2023-03-01T08:26:07;15.10;;;13.30;;
8580;SDS011;4328;48.622;9.230;2023-03-01T08:28:34;15.13;;;13.53;;
8580;SDS011;4328;48.622;9.230;2023-03-01T08:31:00;14.50;;;13.10;;
8580;SDS011;4328;48.622;9.230;2023-03-01T08:33:27;15.50;;;13.60;;
8580;SDS011;4328;48.622;9.230;2023-03-01T08:36:01;17.97;;;13.80;;
8580;SDS011;4328;48.622;9.230;2023-03-01T08:38:28;14.93;;;13.53;;
8580;SDS011;4328;48.622;9.230;2023-03-01T08:40:54;15.03;;;13.40;;
8580;SDS011;4328;48.622;9.230;2023-03-01T08:43:22;14.83;;;13.37;;
8580;SDS011;4328;48.622;9.230;2023-03-01T08:45:49;15.57;;;13.87;;
8580;SDS011;4328;48.622;9.230;2023-03-01T08:48:16;15.10;;;13.50;;
8580;SDS011;4328;48.622;9.230;2023-03-01T08:50:42;13.93;;;12.53;;
8580;SDS011;4328;48.622;9.230;2023-03-01T08:53:08;14.60;;;13.20;;
8580;SDS011;4328;48.622;9.230;2023-03-01T08:55:35;15.70;;;14.07;;
8580;SDS011;4328;48.622;9.230;2023-03-01T08:58:01;15.10;;;13.60;;
8580;SDS011;4328;48.622;9.230;2023-03-01T09:00:29;14.50;;;13.20;;
8580;SDS011;4328;48.622;9.230;2023-03-01T09:02:56;15.20;;;13.63;;
8580;SDS011;4328;48.622;9.230;2023-03-01T09:05:22;14.50;;;13.10;;
8580;SDS011;4328;48.622;9.230;2023-03-01T09:07:48;15.37;;;13.43;;
8580;SDS011;4328;48.622;9.230;2023-03-01T09:10:15;15.03;;;13.63;;
8580;SDS011;4328;48.622;9.230;2023-03-01T09:12:42;15.33;;;13.73;;
8580;SDS011;4328;48.622;9.230;2023-03-01T09:15:09;15.20;;;13.70;;
8580;SDS011;4328;48.622;9.230;2023-03-01T09:17:37;15.33;;;13.80;;
8580;SDS011;4328;48.622;9.230;2023-03-01T09:20:04;15.37;;;13.93;;
8580;SDS011;4328;48.622;9.230;2023-03-01T09:22:32;15.43;;;14.00;;
8580;SDS011;4328;48.622;9.230;2023-03-01T09:24:59;14.60;;;13.27;;
8580;SDS011;4328;48.622;9.230;2023-03-01T09:27:25;15.40;;;13.90;;
8580;SDS011;4328;48.622;9.230;2023-03-01T09:29:51;15.57;;;13.97;;
8580;SDS011;4328;48.622;9.230;2023-03-01T09:32:18;15.53;;;14.13;;
8580;SDS011;4328;48.622;9.230;2023-03-01T09:34:46;15.10;;;13.60;;
8580;SDS011;4328;48.622;9.230;2023-03-01T09:37:29;15.13;;;13.83;;
8580;SDS011;4328;48.622;9.230;2023-03-01T09:39:55;15.00;;;13.40;;
8580;SDS011;4328;48.622;9.230;2023-03-01T09:42:21;16.00;;;14.43;;
8580;SDS011;4328;48.622;9.230;2023-03-01T09:44:49;17.17;;;13.77;;
8580;SDS011;4328;48.622;9.230;2023-03-01T09:47:18;15.70;;;14.10;;
8580;SDS011;4328;48.622;9.230;2023-03-01T09:49:47;14.33;;;12.87;;
8580;SDS011;4328;48.622;9.230;2023-03-01T09:52:19;14.83;;;13.53;;
8580;SDS011;4328;48.622;9.230;2023-03-01T09:54:48;16.13;;;14.23;;
8580;SDS011;4328;48.622;9.230;2023-03-01T09:57:17;15.00;;;13.60;;
8580;SDS011;4328;48.622;9.230;2023-03-01T09:59:48;15.33;;;13.93;;
8580;SDS011;4328;48.622;9.230;2023-03-01T10:02:23;15.47;;;14.03;;
8580;SDS011;4328;48.622;9.230;2023-03-01T10:04:52;14.77;;;13.27;;
8580;SDS011;4328;48.622;9.230;2023-03-01T10:07:27;14.97;;;13.67;;
8580;SDS011;4328;48.622;9.230;2023-03-01T10:09:56;15.83;;;14.33;;
8580;SDS011;4328;48.622;9.230;2023-03-01T10:12:24;14.93;;;13.63;;
8580;SDS011;4328;48.622;9.230;2023-03-01T10:14:54;15.27;;;13.87;;
8580;SDS011;4328;48.622;9.230;2023-03-01T10:17:27;14.60;;;13.27;;
8580;SDS011;4328;48.622;9.230;2023-03-01T10:20:01;14.17;;;12.87;;
8580;SDS011;4328;48.622;9.230;2023-03-01T10:22:36;16.63;;;15.13;;
8580;SDS011;4328;48.622;9.230;2023-03-01T10:25:03;14.90;;;13.60;;
8580;SDS011;4328;48.622;9.230;2023-03-01T10:27:33;14.33;;;13.03;;
8580;SDS011;4328;48.622;9.230;2023-03-01T10:30:02;15.33;;;13.93;;
8580;SDS011;4328;48.622;9.230;2023-03-01T10:32:31;14.90;;;13.70;;
8580;SDS011;4328;48.622;9.230;2023-03-01T10:35:00;14.27;;;13.00;;
8580;SDS011;4328;48.622;9.230;2023-03-01T10:37:26;15.00;;;13.60;;
8580;SDS011;4328;48.622;9.230;2023-03-01T10:39:57;14.20;;;12.90;;
8580;SDS011;4328;48.622;9.230;2023-03-01T10:42:26;14.37;;;13.10;;
8580;SDS011;4328;48.622;9.230;2023-03-01T10:44:53;14.87;;;13.53;;
8580;SDS011;4328;48.622;9.230;2023-03-01T10:47:20;14.80;;;13.40;;
8580;SDS011;4328;48.622;9.230;2023-03-01T10:49:51;15.00;;;13.60;;
8580;SDS011;4328;48.622;9.230;2023-03-01T10:52:20;14.37;;;13.17;;
8580;SDS011;4328;48.622;9.230;2023-03-01T10:54:50;15.27;;;13.97;;
8580;SDS011;4328;48.622;9.230;2023-03-01T10:57:24;13.90;;;12.70;;
8580;SDS011;4328;48.622;9.230;2023-03-01T11:00:01;14.97;;;13.47;;
8580;SDS011;4328;48.622;9.230;2023-03-01T11:02:30;13.33;;;12.17;;
8580;SDS011;4328;48.622;9.230;2023-03-01T11:04:58;13.93;;;12.70;;
8580;SDS011;4328;48.622;9.230;2023-03-01T11:07:26;13.83;;;12.40;;
8580;SDS011;4328;48.622;9.230;2023-03-01T11:09:53;13.57;;;12.20;;
8580;SDS011;4328;48.622;9.230;2023-03-01T11:12:20;13.90;;;12.60;;
8580;SDS011;4328;48.622;9.230;2023-03-01T11:14:47;13.10;;;12.00;;
8580;SDS011;4328;48.622;9.230;2023-03-01T11:17:15;13.40;;;12.10;;
8580;SDS011;4328;48.622;9.230;2023-03-01T11:19:43;13.63;;;12.43;;
8580;SDS011;4328;48.622;9.230;2023-03-01T11:22:26;12.63;;;11.50;;
8580;SDS011;4328;48.622;9.230;2023-03-01T11:24:53;13.37;;;12.17;;
8580;SDS011;4328;48.622;9.230;2023-03-01T11:27:21;14.40;;;13.00;;
8580;SDS011;4328;48.622;9.230;2023-03-01T11:29:50;13.03;;;12.00;;
8580;SDS011;4328;48.622;9.230;2023-03-01T11:32:17;13.23;;;11.93;;
8580;SDS011;4328;48.622;9.230;2023-03-01T11:34:47;12.53;;;11.40;;
8580;SDS011;4328;48.622;9.230;2023-03-01T11:37:21;12.37;;;11.20;;
8580;SDS011;4328;48.622;9.230;2023-03-01T11:39:53;13.27;;;12.07;;
8580;SDS011;4328;48.622;9.230;2023-03-01T11:42:24;12.80;;;11.70;;
8580;SDS011;4328;48.622;9.230;2023-03-01T11:44:52;12.23;;;11.07;;
8580;SDS011;4328;48.622;9.230;2023-03-01T11:47:23;13.03;;;11.93;;
8580;SDS011;4328;48.622;9.230;2023-03-01T11:50:00;12.97;;;11.90;;
8580;SDS011;4328;48.622;9.230;2023-03-01T11:52:30;11.97;;;10.97;;
8580;SDS011;4328;48.622;9.230;2023-03-01T11:55:11;12.60;;;11.50;;
8580;SDS011;4328;48.622;9.230;2023-03-01T11:57:47;12.47;;;11.37;;
8580;SDS011;4328;48.622;9.230;2023-03-01T12:00:22;12.30;;;11.10;;
8580;SDS011;4328;48.622;9.230;2023-03-01T12:02:54;12.33;;;11.30;;
8580;SDS011;4328;48.622;9.230;2023-03-01T12:05:28;13.47;;;12.20;;
8580;SDS011;4328;48.622;9.230;2023-03-01T12:07:59;13.20;;;11.83;;
8580;SDS011;4328;48.622;9.230;2023-03-01T12:10:30;12.83;;;11.63;;
8580;SDS011;4328;48.622;9.230;2023-03-01T12:13:05;12.23;;;11.17;;
8580;SDS011;4328;48.622;9.230;2023-03-01T12:15:39;12.73;;;11.10;;
8580;SDS011;4328;48.622;9.230;2023-03-01T12:18:12;13.17;;;11.97;;
8580;SDS011;4328;48.622;9.230;2023-03-01T12:20:43;12.20;;;11.10;;
8580;SDS011;4328;48.622;9.230;2023-03-01T12:23:17;12.90;;;11.73;;
8580;SDS011;4328;48.622;9.230;2023-03-01T12:25:50;13.07;;;11.97;;
8580;SDS011;4328;48.622;9.230;2023-03-01T12:31:11;12.90;;;11.70;;
8580;SDS011;4328;48.622;9.230;2023-03-01T12:33:43;12.40;;;11.30;;
8580;SDS011;4328;48.622;9.230;2023-03-01T12:36:15;12.40;;;11.33;;
8580;SDS011;4328;48.622;9.230;2023-03-01T12:38:46;12.37;;;11.30;;
8580;SDS011;4328;48.622;9.230;2023-03-01T12:41:21;12.07;;;10.90;;
8580;SDS011;4328;48.622;9.230;2023-03-01T12:43:51;12.60;;;11.50;;
8580;SDS011;4328;48.622;9.230;2023-03-01T12:46:25;12.13;;;11.13;;
8580;SDS011;4328;48.622;9.230;2023-03-01T12:48:56;14.48;;;13.18;;
8580;SDS011;4328;48.622;9.230;2023-03-01T12:51:28;13.27;;;12.18;;
8580;SDS011;4328;48.622;9.230;2023-03-01T12:53:56;13.00;;;11.90;;
8580;SDS011;4328;48.622;9.230;2023-03-01T12:56:25;12.75;;;11.70;;
8580;SDS011;4328;48.622;9.230;2023-03-01T12:58:56;13.73;;;12.63;;
8580;SDS011;4328;48.622;9.230;2023-03-01T13:01:27;13.30;;;12.10;;
8580;SDS011;4328;48.622;9.230;2023-03-01T13:03:58;13.73;;;12.63;;
8580;SDS011;4328;48.622;9.230;2023-03-01T13:06:29;13.20;;;12.07;;
8580;SDS011;4328;48.622;9.230;2023-03-01T13:09:03;13.57;;;12.48;;
8580;SDS011;4328;48.622;9.230;2023-03-01T13:11:33;13.15;;;12.00;;
8580;SDS011;4328;48.622;9.230;2023-03-01T13:16:44;12.90;;;11.75;;
8580;SDS011;4328;48.622;9.230;2023-03-01T13:19:14;13.47;;;12.20;;
8580;SDS011;4328;48.622;9.230;2023-03-01T13:21:41;12.70;;;11.63;;
8580;SDS011;4328;48.622;9.230;2023-03-01T13:24:24;13.80;;;12.50;;
8580;SDS011;4328;48.622;9.230;2023-03-01T13:29:44;13.57;;;12.47;;
8580;SDS011;4328;48.622;9.230;2023-03-01T13:32:18;12.60;;;11.50;;
8580;SDS011;4328;48.622;9.230;2023-03-01T13:34:46;13.03;;;11.90;;
8580;SDS011;4328;48.622;9.230;2023-03-01T13:37:20;13.43;;;12.13;;
8580;SDS011;4328;48.622;9.230;2023-03-01T13:39:46;12.30;;;11.20;;
8580;SDS011;4328;48.622;9.230;2023-03-01T13:44:59;13.83;;;12.63;;
8580;SDS011;4328;48.622;9.230;2023-03-01T13:47:26;13.20;;;12.10;;
8580;SDS011;4328;48.622;9.230;2023-03-01T13:49:53;13.37;;;12.17;;
8580;SDS011;4328;48.622;9.230;2023-03-01T13:52:27;13.90;;;12.67;;
8580;SDS011;4328;48.622;9.230;2023-03-01T13:54:56;12.67;;;11.57;;
8580;SDS011;4328;48.622;9.230;2023-03-01T13:57:24;13.83;;;12.43;;
8580;SDS011;4328;48.622;9.230;2023-03-01T13:59:52;13.93;;;12.70;;
8580;SDS011;4328;48.622;9.230;2023-03-01T14:02:20;14.30;;;11.97;;
8580;SDS011;4328;48.622;9.230;2023-03-01T14:04:55;13.63;;;12.23;;
8580;SDS011;4328;48.622;9.230;2023-03-01T14:07:22;13.10;;;11.90;;
8580;SDS011;4328;48.622;9.230;2023-03-01T14:09:51;13.13;;;12.03;;
8580;SDS011;4328;48.622;9.230;2023-03-01T14:12:32;12.93;;;11.80;;
8580;SDS011;4328;48.622;9.230;2023-03-01T14:15:04;13.87;;;12.47;;
8580;SDS011;4328;48.622;9.230;2023-03-01T14:17:46;13.67;;;12.37;;
8580;SDS011;4328;48.622;9.230;2023-03-01T14:20:16;13.13;;;11.83;;
8580;SDS011;4328;48.622;9.230;2023-03-01T14:22:43;13.00;;;11.80;;
8580;SDS011;4328;48.622;9.230;2023-03-01T14:25:18;13.13;;;11.40;;
8580;SDS011;4328;48.622;9.230;2023-03-01T14:27:45;13.00;;;11.80;;
8580;SDS011;4328;48.622;9.230;2023-03-01T14:30:17;13.47;;;12.10;;
8580;SDS011;4328;48.622;9.230;2023-03-01T14:32:52;13.13;;;11.93;;
8580;SDS011;4328;48.622;9.230;2023-03-01T14:35:20;12.70;;;11.50;;
8580;SDS011;4328;48.622;9.230;2023-03-01T14:37:47;12.23;;;11.13;;
8580;SDS011;4328;48.622;9.230;2023-03-01T14:40:19;13.17;;;11.83;;
8580;SDS011;4328;48.622;9.230;2023-03-01T14:42:46;12.50;;;11.40;;
8580;SDS011;4328;48.622;9.230;2023-03-01T14:45:13;12.30;;;11.10;;
8580;SDS011;4328;48.622;9.230;2023-03-01T14:47:40;12.53;;;11.33;;
8580;SDS011;4328;48.622;9.230;2023-03-01T14:50:09;12.87;;;11.77;;
8580;SDS011;4328;48.622;9.230;2023-03-01T14:52:36;12.67;;;11.47;;
8580;SDS011;4328;48.622;9.230;2023-03-01T14:55:04;11.93;;;10.73;;
8580;SDS011;4328;48.622;9.230;2023-03-01T14:57:31;12.27;;;11.13;;
8580;SDS011;4328;48.622;9.230;2023-03-01T14:59:58;13.33;;;11.93;;
8580;SDS011;4328;48.622;9.230;2023-03-01T15:02:30;12.23;;;11.13;;
8580;SDS011;4328;48.622;9.230;2023-03-01T15:04:57;12.47;;;11.27;;
8580;SDS011;4328;48.622;9.230;2023-03-01T15:07:28;13.03;;;11.73;;
8580;SDS011;4328;48.622;9.230;2023-03-01T15:09:56;13.87;;;11.90;;